sensor_id;sensor_type;location;lat;lon;timestamp;P1;durP1;ratioP1;P2;durP2;ratioP2
18172;SDS011;9211;48.818;9.312;2024-03-22T00:00:40;16.30;;;9.88;;
18172;SDS011;9211;48.818;9.312;2024-03-22T00:03:09;19.52;;;9.00;;
18172;SDS011;9211;48.818;9.312;2024-03-22T00:05:35;20.48;;;10.00;;
18172;SDS011;9211;48.818;9.312;2024-03-22T00:08:03;17.45;;;9.48;;
18172;SDS011;9211;48.818;9.312;2024-03-22T00:10:29;17.13;;;9.45;;
18172;SDS011;9211;48.818;9.312;2024-03-22T00:12:56;19.47;;;9.77;;
18172;SDS011;9211;48.818;9.312;2024-03-22T00:15:22;17.83;;;9.48;;
18172;SDS011;9211;48.818;9.312;2024-03-22T00:17:50;16.65;;;9.20;;
18172;SDS011;9211;48.818;9.312;2024-03-22T00:20:17;17.30;;;9.27;;
18172;SDS011;9211;48.818;9.312;2024-03-22T00:22:45;16.92;;;9.85;;
18172;SDS011;9211;48.818;9.312;2024-03-22T00:25:11;17.00;;;9.82;;
18172;SDS011;9211;48.818;9.312;2024-03-22T00:27:38;18.73;;;9.53;;
18172;SDS011;9211;48.818;9.312;2024-03-22T00:30:05;18.08;;;9.57;;
18172;SDS011;9211;48.818;9.312;2024-03-22T00:32:32;18.02;;;9.93;;
18172;SDS011;9211;48.818;9.312;2024-03-22T00:34:59;19.13;;;9.75;;
18172;SDS011;9211;48.818;9.312;2024-03-22T00:37:27;18.08;;;9.65;;
18172;SDS011;9211;48.818;9.312;2024-03-22T00:39:53;17.53;;;9.57;;
18172;SDS011;9211;48.818;9.312;2024-03-22T00:42:20;16.92;;;9.75;;
18172;SDS011;9211;48.818;9.312;2024-03-22T00:44:47;16.48;;;9.77;;
18172;SDS011;9211;48.818;9.312;2024-03-22T00:47:14;16.48;;;9.40;;
18172;SDS011;9211;48.818;9.312;2024-03-22T00:49:40;17.63;;;9.40;;
18172;SDS011;9211;48.818;9.312;2024-03-22T00:52:08;17.57;;;8.90;;
18172;SDS011;9211;48.818;9.312;2024-03-22T00:54:35;14.48;;;9.00;;
18172;SDS011;9211;48.818;9.312;2024-03-22T00:57:04;16.20;;;9.63;;
18172;SDS011;9211;48.818;9.312;2024-03-22T00:59:30;21.42;;;9.57;;
18172;SDS011;9211;48.818;9.312;2024-03-22T01:01:58;17.80;;;9.27;;
18172;SDS011;9211;48.818;9.312;2024-03-22T01:04:24;16.50;;;9.43;;
18172;SDS011;9211;48.818;9.312;2024-03-22T01:06:51;16.17;;;9.07;;
18172;SDS011;9211;48.818;9.312;2024-03-22T01:09:17;20.20;;;9.32;;
18172;SDS011;9211;48.818;9.312;2024-03-22T01:11:46;15.48;;;9.15;;
18172;SDS011;9211;48.818;9.312;2024-03-22T01:14:12;17.98;;;9.50;;
18172;SDS011;9211;48.818;9.312;2024-03-22T01:16:39;15.30;;;8.73;;
18172;SDS011;9211;48.818;9.312;2024-03-22T01:19:07;18.05;;;9.30;;
18172;SDS011;9211;48.818;9.312;2024-03-22T01:21:34;14.23;;;8.60;;
18172;SDS011;9211;48.818;9.312;2024-03-22T01:24:01;15.15;;;8.70;;
18172;SDS011;9211;48.818;9.312;2024-03-22T01:26:28;15.48;;;9.00;;
18172;SDS011;9211;48.818;9.312;2024-03-22T01:28:55;16.00;;;9.20;;
18172;SDS011;9211;48.818;9.312;2024-03-22T01:31:23;18.50;;;9.60;;
18172;SDS011;9211;48.818;9.312;2024-03-22T01:33:49;15.63;;;9.30;;
18172;SDS011;9211;48.818;9.312;2024-03-22T01:36:16;15.13;;;9.02;;
18172;SDS011;9211;48.818;9.312;2024-03-22T01:38:42;17.45;;;9.45;;
18172;SDS011;9211;48.818;9.312;2024-03-22T01:41:09;16.35;;;8.93;;
18172;SDS011;9211;48.818;9.312;2024-03-22T01:43:36;14.43;;;8.60;;
18172;SDS011;9211;48.818;9.312;2024-03-22T01:46:05;15.98;;;8.35;;
18172;SDS011;9211;48.818;9.312;2024-03-22T01:48:33;14.40;;;8.25;;
18172;SDS011;9211;48.818;9.312;2024-03-22T01:51:01;16.05;;;8.50;;
18172;SDS011;9211;48.818;9.312;2024-03-22T01:53:29;14.53;;;8.67;;
18172;SDS011;9211;48.818;9.312;2024-03-22T01:55:56;15.60;;;9.30;;
18172;SDS011;9211;48.818;9.312;2024-03-22T01:58:22;16.25;;;9.32;;
18172;SDS011;9211;48.818;9.312;2024-03-22T02:00:50;16.05;;;9.02;;
18172;SDS011;9211;48.818;9.312;2024-03-22T02:03:17;16.17;;;9.40;;
18172;SDS011;9211;48.818;9.312;2024-03-22T02:05:44;15.93;;;9.68;;
18172;SDS011;9211;48.818;9.312;2024-03-22T02:08:11;14.80;;;9.17;;
18172;SDS011;9211;48.818;9.312;2024-03-22T02:10:40;21.55;;;10.45;;
18172;SDS011;9211;48.818;9.312;2024-03-22T02:13:06;21.08;;;11.35;;
18172;SDS011;9211;48.818;9.312;2024-03-22T02:15:33;17.77;;;10.00;;
18172;SDS011;9211;48.818;9.312;2024-03-22T02:17:59;17.00;;;10.65;;
18172;SDS011;9211;48.818;9.312;2024-03-22T02:20:28;17.37;;;10.13;;
18172;SDS011;9211;48.818;9.312;2024-03-22T02:22:54;17.17;;;10.02;;
18172;SDS011;9211;48.818;9.312;2024-03-22T02:25:23;15.30;;;9.43;;
18172;SDS011;9211;48.818;9.312;2024-03-22T02:27:49;17.70;;;9.60;;
18172;SDS011;9211;48.818;9.312;2024-03-22T02:30:16;17.60;;;10.18;;
18172;SDS011;9211;48.818;9.312;2024-03-22T02:32:43;18.92;;;10.40;;
18172;SDS011;9211;48.818;9.312;2024-03-22T02:35:10;16.17;;;9.50;;
18172;SDS011;9211;48.818;9.312;2024-03-22T02:37:36;15.37;;;9.50;;
18172;SDS011;9211;48.818;9.312;2024-03-22T02:40:04;16.30;;;9.30;;
18172;SDS011;9211;48.818;9.312;2024-03-22T02:42:32;16.73;;;9.45;;
18172;SDS011;9211;48.818;9.312;2024-03-22T02:44:59;17.92;;;9.80;;
18172;SDS011;9211;48.818;9.312;2024-03-22T02:47:26;18.97;;;9.90;;
18172;SDS011;9211;48.818;9.312;2024-03-22T02:49:53;17.92;;;9.75;;
18172;SDS011;9211;48.818;9.312;2024-03-22T02:52:19;17.05;;;9.43;;
18172;SDS011;9211;48.818;9.312;2024-03-22T02:54:46;15.77;;;9.68;;
18172;SDS011;9211;48.818;9.312;2024-03-22T02:57:13;17.13;;;9.65;;
18172;SDS011;9211;48.818;9.312;2024-03-22T02:59:41;16.02;;;9.43;;
18172;SDS011;9211;48.818;9.312;2024-03-22T03:02:07;14.60;;;9.30;;
18172;SDS011;9211;48.818;9.312;2024-03-22T03:04:35;14.98;;;9.30;;
18172;SDS011;9211;48.818;9.312;2024-03-22T03:07:01;15.07;;;9.15;;
18172;SDS011;9211;48.818;9.312;2024-03-22T03:09:28;15.68;;;9.32;;
18172;SDS011;9211;48.818;9.312;2024-03-22T03:11:54;15.90;;;9.32;;
18172;SDS011;9211;48.818;9.312;2024-03-22T03:14:21;16.83;;;8.97;;
18172;SDS011;9211;48.818;9.312;2024-03-22T03:16:49;15.48;;;9.02;;
18172;SDS011;9211;48.818;9.312;2024-03-22T03:19:16;17.00;;;9.38;;
18172;SDS011;9211;48.818;9.312;2024-03-22T03:21:43;19.50;;;9.70;;
18172;SDS011;9211;48.818;9.312;2024-03-22T03:24:10;19.30;;;9.98;;
18172;SDS011;9211;48.818;9.312;2024-03-22T03:26:36;17.30;;;9.65;;
18172;SDS011;9211;48.818;9.312;2024-03-22T03:29:03;17.30;;;10.02;;
18172;SDS011;9211;48.818;9.312;2024-03-22T03:31:29;19.35;;;10.77;;
18172;SDS011;9211;48.818;9.312;2024-03-22T03:33:58;18.60;;;10.70;;
18172;SDS011;9211;48.818;9.312;2024-03-22T03:36:25;20.00;;;10.85;;
18172;SDS011;9211;48.818;9.312;2024-03-22T03:38:52;17.85;;;10.80;;
18172;SDS011;9211;48.818;9.312;2024-03-22T03:41:19;17.75;;;10.35;;
18172;SDS011;9211;48.818;9.312;2024-03-22T03:43:46;17.73;;;10.00;;
18172;SDS011;9211;48.818;9.312;2024-03-22T03:46:12;15.38;;;9.40;;
18172;SDS011;9211;48.818;9.312;2024-03-22T03:48:39;16.90;;;9.73;;
18172;SDS011;9211;48.818;9.312;2024-03-22T03:51:07;15.55;;;9.02;;
18172;SDS011;9211;48.818;9.312;2024-03-22T03:53:34;15.38;;;8.77;;
18172;SDS011;9211;48.818;9.312;2024-03-22T03:56:00;15.68;;;8.73;;
18172;SDS011;9211;48.818;9.312;2024-03-22T03:58:27;13.65;;;8.13;;
18172;SDS011;9211;48.818;9.312;2024-03-22T04:00:54;15.40;;;8.48;;
18172;SDS011;9211;48.818;9.312;2024-03-22T04:03:21;13.68;;;8.75;;
18172;SDS011;9211;48.818;9.312;2024-03-22T04:05:55;14.77;;;8.63;;
18172;SDS011;9211;48.818;9.312;2024-03-22T04:08:24;13.65;;;7.82;;
18172;SDS011;9211;48.818;9.312;2024-03-22T04:10:51;13.70;;;8.20;;
18172;SDS011;9211;48.818;9.312;2024-03-22T04:13:18;13.48;;;8.40;;
18172;SDS011;9211;48.818;9.312;2024-03-22T04:15:44;13.43;;;8.20;;
18172;SDS011;9211;48.818;9.312;2024-03-22T04:18:12;14.35;;;8.27;;
18172;SDS011;9211;48.818;9.312;2024-03-22T04:20:38;14.40;;;8.20;;
18172;SDS011;9211;48.818;9.312;2024-03-22T04:23:05;13.90;;;8.00;;
18172;SDS011;9211;48.818;9.312;2024-03-22T04:25:33;14.02;;;8.20;;
18172;SDS011;9211;48.818;9.312;2024-03-22T04:28:00;14.60;;;8.25;;
18172;SDS011;9211;48.818;9.312;2024-03-22T04:30:26;14.93;;;8.13;;
18172;SDS011;9211;48.818;9.312;2024-03-22T04:32:53;14.27;;;8.40;;
18172;SDS011;9211;48.818;9.312;2024-03-22T04:35:19;16.13;;;7.85;;
18172;SDS011;9211;48.818;9.312;2024-03-22T04:37:47;12.43;;;7.63;;
18172;SDS011;9211;48.818;9.312;2024-03-22T04:40:14;13.45;;;8.10;;
18172;SDS011;9211;48.818;9.312;2024-03-22T04:42:42;12.52;;;8.10;;
18172;SDS011;9211;48.818;9.312;2024-03-22T04:45:09;14.68;;;7.90;;
18172;SDS011;9211;48.818;9.312;2024-03-22T04:47:36;13.10;;;7.78;;
18172;SDS011;9211;48.818;9.312;2024-03-22T04:50:03;14.38;;;7.75;;
18172;SDS011;9211;48.818;9.312;2024-03-22T04:52:30;13.95;;;8.23;;
18172;SDS011;9211;48.818;9.312;2024-03-22T04:54:56;14.80;;;8.18;;
18172;SDS011;9211;48.818;9.312;2024-03-22T04:57:24;13.52;;;8.20;;
18172;SDS011;9211;48.818;9.312;2024-03-22T04:59:52;12.25;;;7.90;;
18172;SDS011;9211;48.818;9.312;2024-03-22T05:02:18;15.40;;;7.95;;
18172;SDS011;9211;48.818;9.312;2024-03-22T05:04:46;14.98;;;7.97;;
18172;SDS011;9211;48.818;9.312;2024-03-22T05:07:14;12.85;;;7.85;;
18172;SDS011;9211;48.818;9.312;2024-03-22T05:09:42;13.82;;;7.30;;
18172;SDS011;9211;48.818;9.312;2024-03-22T05:12:08;13.32;;;7.78;;
18172;SDS011;9211;48.818;9.312;2024-03-22T05:14:35;13.63;;;8.02;;
18172;SDS011;9211;48.818;9.312;2024-03-22T05:17:03;14.05;;;7.85;;
18172;SDS011;9211;48.818;9.312;2024-03-22T05:19:30;13.10;;;8.23;;
18172;SDS011;9211;48.818;9.312;2024-03-22T05:21:57;13.25;;;7.85;;
18172;SDS011;9211;48.818;9.312;2024-03-22T05:24:25;13.77;;;7.93;;
18172;SDS011;9211;48.818;9.312;2024-03-22T05:26:51;13.63;;;8.10;;
18172;SDS011;9211;48.818;9.312;2024-03-22T05:29:19;15.82;;;7.97;;
18172;SDS011;9211;48.818;9.312;2024-03-22T05:31:45;11.57;;;7.47;;
18172;SDS011;9211;48.818;9.312;2024-03-22T05:34:14;15.88;;;8.45;;
18172;SDS011;9211;48.818;9.312;2024-03-22T05:36:41;16.05;;;8.02;;
18172;SDS011;9211;48.818;9.312;2024-03-22T05:39:08;18.67;;;8.63;;
18172;SDS011;9211;48.818;9.312;2024-03-22T05:41:35;15.10;;;8.38;;
18172;SDS011;9211;48.818;9.312;2024-03-22T05:44:03;13.15;;;8.13;;
18172;SDS011;9211;48.818;9.312;2024-03-22T05:46:29;13.50;;;7.80;;
18172;SDS011;9211;48.818;9.312;2024-03-22T05:48:57;15.00;;;8.20;;
18172;SDS011;9211;48.818;9.312;2024-03-22T05:51:25;14.63;;;8.20;;
18172;SDS011;9211;48.818;9.312;2024-03-22T05:53:52;15.77;;;8.10;;
18172;SDS011;9211;48.818;9.312;2024-03-22T05:56:18;15.82;;;8.23;;
18172;SDS011;9211;48.818;9.312;2024-03-22T05:58:45;14.27;;;8.35;;
18172;SDS011;9211;48.818;9.312;2024-03-22T06:01:12;14.50;;;8.68;;
18172;SDS011;9211;48.818;9.312;2024-03-22T06:03:39;15.48;;;8.90;;
18172;SDS011;9211;48.818;9.312;2024-03-22T06:06:05;15.80;;;8.55;;
18172;SDS011;9211;48.818;9.312;2024-03-22T06:08:34;16.80;;;8.65;;
18172;SDS011;9211;48.818;9.312;2024-03-22T06:11:04;17.70;;;8.80;;
18172;SDS011;9211;48.818;9.312;2024-03-22T06:13:32;15.68;;;8.50;;
18172;SDS011;9211;48.818;9.312;2024-03-22T06:15:58;16.17;;;8.88;;
18172;SDS011;9211;48.818;9.312;2024-03-22T06:18:25;14.98;;;8.63;;
18172;SDS011;9211;48.818;9.312;2024-03-22T06:20:51;13.67;;;8.60;;
18172;SDS011;9211;48.818;9.312;2024-03-22T06:23:20;16.30;;;9.20;;
18172;SDS011;9211;48.818;9.312;2024-03-22T06:25:52;16.40;;;8.82;;
18172;SDS011;9211;48.818;9.312;2024-03-22T06:28:19;17.48;;;9.77;;
18172;SDS011;9211;48.818;9.312;2024-03-22T06:30:45;15.57;;;9.38;;
18172;SDS011;9211;48.818;9.312;2024-03-22T06:33:12;16.65;;;9.40;;
18172;SDS011;9211;48.818;9.312;2024-03-22T06:35:39;18.57;;;9.20;;
18172;SDS011;9211;48.818;9.312;2024-03-22T06:38:06;17.23;;;9.35;;
18172;SDS011;9211;48.818;9.312;2024-03-22T06:40:32;18.38;;;9.27;;
18172;SDS011;9211;48.818;9.312;2024-03-22T06:43:01;18.38;;;9.43;;
18172;SDS011;9211;48.818;9.312;2024-03-22T06:45:27;18.23;;;10.13;;
18172;SDS011;9211;48.818;9.312;2024-03-22T06:47:54;16.08;;;9.60;;
18172;SDS011;9211;48.818;9.312;2024-03-22T06:50:21;17.50;;;9.77;;
18172;SDS011;9211;48.818;9.312;2024-03-22T06:52:49;18.10;;;9.80;;
18172;SDS011;9211;48.818;9.312;2024-03-22T06:55:16;16.42;;;9.75;;
18172;SDS011;9211;48.818;9.312;2024-03-22T06:57:43;16.47;;;9.70;;
18172;SDS011;9211;48.818;9.312;2024-03-22T07:00:12;18.05;;;10.23;;
18172;SDS011;9211;48.818;9.312;2024-03-22T07:02:39;22.02;;;10.43;;
18172;SDS011;9211;48.818;9.312;2024-03-22T07:05:06;20.73;;;10.10;;
18172;SDS011;9211;48.818;9.312;2024-03-22T07:07:33;18.58;;;10.15;;
18172;SDS011;9211;48.818;9.312;2024-03-22T07:09:59;21.48;;;10.38;;
18172;SDS011;9211;48.818;9.312;2024-03-22T07:12:27;16.65;;;9.82;;
18172;SDS011;9211;48.818;9.312;2024-03-22T07:14:53;20.40;;;10.63;;
18172;SDS011;9211;48.818;9.312;2024-03-22T07:17:22;17.13;;;10.20;;
18172;SDS011;9211;48.818;9.312;2024-03-22T07:19:49;18.20;;;10.15;;
18172;SDS011;9211;48.818;9.312;2024-03-22T07:22:17;19.38;;;10.25;;
18172;SDS011;9211;48.818;9.312;2024-03-22T07:24:43;18.45;;;10.25;;
18172;SDS011;9211;48.818;9.312;2024-03-22T07:27:10;17.70;;;10.50;;
18172;SDS011;9211;48.818;9.312;2024-03-22T07:29:36;18.75;;;10.32;;
18172;SDS011;9211;48.818;9.312;2024-03-22T07:32:04;16.85;;;10.35;;
18172;SDS011;9211;48.818;9.312;2024-03-22T07:34:32;20.27;;;9.95;;
18172;SDS011;9211;48.818;9.312;2024-03-22T07:36:59;17.52;;;10.20;;
18172;SDS011;9211;48.818;9.312;2024-03-22T07:39:25;19.42;;;10.70;;
18172;SDS011;9211;48.818;9.312;2024-03-22T07:41:53;17.05;;;10.20;;
18172;SDS011;9211;48.818;9.312;2024-03-22T07:44:19;21.23;;;10.27;;
18172;SDS011;9211;48.818;9.312;2024-03-22T07:46:49;17.80;;;10.68;;
18172;SDS011;9211;48.818;9.312;2024-03-22T07:49:15;18.00;;;10.43;;
18172;SDS011;9211;48.818;9.312;2024-03-22T07:51:44;17.63;;;10.55;;
18172;SDS011;9211;48.818;9.312;2024-03-22T07:54:10;18.03;;;9.93;;
18172;SDS011;9211;48.818;9.312;2024-03-22T07:56:37;20.17;;;10.55;;
18172;SDS011;9211;48.818;9.312;2024-03-22T07:59:03;21.20;;;10.57;;
18172;SDS011;9211;48.818;9.312;2024-03-22T08:01:31;19.20;;;10.97;;
18172;SDS011;9211;48.818;9.312;2024-03-22T08:03:57;18.67;;;10.50;;
18172;SDS011;9211;48.818;9.312;2024-03-22T08:06:24;19.52;;;10.50;;
18172;SDS011;9211;48.818;9.312;2024-03-22T08:08:51;19.05;;;10.25;;
18172;SDS011;9211;48.818;9.312;2024-03-22T08:11:18;20.85;;;11.50;;
18172;SDS011;9211;48.818;9.312;2024-03-22T08:13:45;22.60;;;10.95;;
18172;SDS011;9211;48.818;9.312;2024-03-22T08:16:12;18.35;;;10.38;;
18172;SDS011;9211;48.818;9.312;2024-03-22T08:18:39;17.73;;;10.50;;
18172;SDS011;9211;48.818;9.312;2024-03-22T08:21:06;20.38;;;10.98;;
18172;SDS011;9211;48.818;9.312;2024-03-22T08:23:32;17.30;;;10.68;;
18172;SDS011;9211;48.818;9.312;2024-03-22T08:26:01;17.92;;;10.68;;
18172;SDS011;9211;48.818;9.312;2024-03-22T08:28:27;20.00;;;10.27;;
18172;SDS011;9211;48.818;9.312;2024-03-22T08:30:54;18.40;;;10.10;;
18172;SDS011;9211;48.818;9.312;2024-03-22T08:33:20;17.58;;;10.40;;
18172;SDS011;9211;48.818;9.312;2024-03-22T08:35:48;17.65;;;11.02;;
18172;SDS011;9211;48.818;9.312;2024-03-22T08:38:14;17.38;;;10.23;;
18172;SDS011;9211;48.818;9.312;2024-03-22T08:40:41;19.00;;;10.40;;
18172;SDS011;9211;48.818;9.312;2024-03-22T08:43:09;18.90;;;10.70;;
18172;SDS011;9211;48.818;9.312;2024-03-22T08:45:36;16.42;;;10.73;;
18172;SDS011;9211;48.818;9.312;2024-03-22T08:48:03;17.88;;;10.57;;
18172;SDS011;9211;48.818;9.312;2024-03-22T08:50:30;19.38;;;10.30;;
18172;SDS011;9211;48.818;9.312;2024-03-22T08:52:56;17.30;;;9.82;;
18172;SDS011;9211;48.818;9.312;2024-03-22T08:55:23;17.30;;;9.93;;
18172;SDS011;9211;48.818;9.312;2024-03-22T08:57:50;16.75;;;9.82;;
18172;SDS011;9211;48.818;9.312;2024-03-22T09:00:19;15.20;;;9.70;;
18172;SDS011;9211;48.818;9.312;2024-03-22T09:02:45;19.90;;;10.45;;
18172;SDS011;9211;48.818;9.312;2024-03-22T09:05:12;16.80;;;9.80;;
18172;SDS011;9211;48.818;9.312;2024-03-22T09:07:38;16.40;;;9.73;;
18172;SDS011;9211;48.818;9.312;2024-03-22T09:10:06;15.38;;;9.52;;
18172;SDS011;9211;48.818;9.312;2024-03-22T09:12:32;16.73;;;9.45;;
18172;SDS011;9211;48.818;9.312;2024-03-22T09:14:59;16.25;;;9.10;;
18172;SDS011;9211;48.818;9.312;2024-03-22T09:17:27;16.80;;;9.93;;
18172;SDS011;9211;48.818;9.312;2024-03-22T09:19:55;17.95;;;9.20;;
18172;SDS011;9211;48.818;9.312;2024-03-22T09:22:29;12.73;;;8.50;;
18172;SDS011;9211;48.818;9.312;2024-03-22T09:24:57;20.70;;;9.73;;
18172;SDS011;9211;48.818;9.312;2024-03-22T09:27:23;17.75;;;8.93;;
18172;SDS011;9211;48.818;9.312;2024-03-22T09:29:51;18.65;;;9.32;;
18172;SDS011;9211;48.818;9.312;2024-03-22T09:32:18;19.20;;;9.43;;
18172;SDS011;9211;48.818;9.312;2024-03-22T09:34:46;20.02;;;8.68;;
18172;SDS011;9211;48.818;9.312;2024-03-22T09:37:14;17.52;;;8.95;;
18172;SDS011;9211;48.818;9.312;2024-03-22T09:39:42;15.40;;;8.88;;
18172;SDS011;9211;48.818;9.312;2024-03-22T09:42:10;14.63;;;8.70;;
18172;SDS011;9211;48.818;9.312;2024-03-22T09:44:40;17.77;;;8.40;;
18172;SDS011;9211;48.818;9.312;2024-03-22T09:47:08;16.73;;;8.68;;
18172;SDS011;9211;48.818;9.312;2024-03-22T09:49:35;17.00;;;8.63;;
18172;SDS011;9211;48.818;9.312;2024-03-22T09:52:03;18.80;;;8.85;;
18172;SDS011;9211;48.818;9.312;2024-03-22T09:54:31;15.43;;;8.45;;
18172;SDS011;9211;48.818;9.312;2024-03-22T09:56:57;13.63;;;7.90;;
18172;SDS011;9211;48.818;9.312;2024-03-22T09:59:33;16.00;;;7.93;;
18172;SDS011;9211;48.818;9.312;2024-03-22T10:01:59;12.82;;;7.78;;
18172;SDS011;9211;48.818;9.312;2024-03-22T10:04:40;13.45;;;7.30;;
18172;SDS011;9211;48.818;9.312;2024-03-22T10:07:09;12.10;;;6.80;;
18172;SDS011;9211;48.818;9.312;2024-03-22T10:09:47;14.73;;;7.35;;
18172;SDS011;9211;48.818;9.312;2024-03-22T10:12:21;12.27;;;7.25;;
18172;SDS011;9211;48.818;9.312;2024-03-22T10:14:48;14.10;;;7.43;;
18172;SDS011;9211;48.818;9.312;2024-03-22T10:17:15;15.52;;;7.43;;
18172;SDS011;9211;48.818;9.312;2024-03-22T10:19:44;11.18;;;6.65;;
18172;SDS011;9211;48.818;9.312;2024-03-22T10:22:29;11.68;;;6.10;;
18172;SDS011;9211;48.818;9.312;2024-03-22T10:24:56;9.43;;;5.57;;
18172;SDS011;9211;48.818;9.312;2024-03-22T10:27:26;14.45;;;6.45;;
18172;SDS011;9211;48.818;9.312;2024-03-22T10:29:54;11.70;;;6.35;;
18172;SDS011;9211;48.818;9.312;2024-03-22T10:32:20;14.00;;;7.10;;
18172;SDS011;9211;48.818;9.312;2024-03-22T10:34:47;12.30;;;6.28;;
18172;SDS011;9211;48.818;9.312;2024-03-22T10:37:15;9.20;;;5.63;;
18172;SDS011;9211;48.818;9.312;2024-03-22T10:39:48;10.98;;;5.50;;
18172;SDS011;9211;48.818;9.312;2024-03-22T10:42:22;10.70;;;5.07;;
18172;SDS011;9211;48.818;9.312;2024-03-22T10:44:49;11.07;;;5.25;;
18172;SDS011;9211;48.818;9.312;2024-03-22T10:47:16;9.83;;;5.47;;
18172;SDS011;9211;48.818;9.312;2024-03-22T10:49:46;13.57;;;5.43;;
18172;SDS011;9211;48.818;9.312;2024-03-22T10:52:14;11.07;;;5.30;;
18172;SDS011;9211;48.818;9.312;2024-03-22T10:54:43;11.02;;;5.30;;
18172;SDS011;9211;48.818;9.312;2024-03-22T10:57:12;9.35;;;5.15;;
18172;SDS011;9211;48.818;9.312;2024-03-22T10:59:41;8.40;;;4.90;;
18172;SDS011;9211;48.818;9.312;2024-03-22T11:02:10;11.60;;;5.20;;
18172;SDS011;9211;48.818;9.312;2024-03-22T11:04:37;9.18;;;5.60;;
18172;SDS011;9211;48.818;9.312;2024-03-22T11:07:03;12.07;;;5.88;;
18172;SDS011;9211;48.818;9.312;2024-03-22T11:09:31;14.55;;;5.88;;
18172;SDS011;9211;48.818;9.312;2024-03-22T11:11:57;10.20;;;5.40;;
18172;SDS011;9211;48.818;9.312;2024-03-22T11:14:28;10.38;;;5.40;;
18172;SDS011;9211;48.818;9.312;2024-03-22T11:16:58;11.63;;;5.30;;
18172;SDS011;9211;48.818;9.312;2024-03-22T11:19:32;10.95;;;5.38;;
18172;SDS011;9211;48.818;9.312;2024-03-22T11:21:59;8.70;;;4.35;;
18172;SDS011;9211;48.818;9.312;2024-03-22T11:24:26;7.82;;;4.57;;
18172;SDS011;9211;48.818;9.312;2024-03-22T11:26:52;9.93;;;4.95;;
18172;SDS011;9211;48.818;9.312;2024-03-22T11:29:31;11.88;;;5.05;;
18172;SDS011;9211;48.818;9.312;2024-03-22T11:32:06;10.95;;;4.82;;
18172;SDS011;9211;48.818;9.312;2024-03-22T11:34:34;9.18;;;5.10;;
18172;SDS011;9211;48.818;9.312;2024-03-22T11:37:05;7.78;;;4.10;;
18172;SDS011;9211;48.818;9.312;2024-03-22T11:39:35;8.80;;;5.00;;
18172;SDS011;9211;48.818;9.312;2024-03-22T11:42:02;9.90;;;4.77;;
18172;SDS011;9211;48.818;9.312;2024-03-22T11:44:31;9.63;;;4.80;;
18172;SDS011;9211;48.818;9.312;2024-03-22T11:46:57;11.57;;;4.97;;
18172;SDS011;9211;48.818;9.312;2024-03-22T11:49:25;10.70;;;5.00;;
18172;SDS011;9211;48.818;9.312;2024-03-22T11:51:55;8.77;;;4.60;;
18172;SDS011;9211;48.818;9.312;2024-03-22T11:54:22;8.13;;;4.05;;
18172;SDS011;9211;48.818;9.312;2024-03-22T11:56:55;8.52;;;4.50;;
18172;SDS011;9211;48.818;9.312;2024-03-22T11:59:25;8.57;;;4.53;;
18172;SDS011;9211;48.818;9.312;2024-03-22T12:01:55;9.15;;;4.75;;
18172;SDS011;9211;48.818;9.312;2024-03-22T12:04:24;11.40;;;5.32;;
18172;SDS011;9211;48.818;9.312;2024-03-22T12:06:57;11.48;;;5.18;;
18172;SDS011;9211;48.818;9.312;2024-03-22T12:09:28;9.38;;;5.22;;
18172;SDS011;9211;48.818;9.312;2024-03-22T12:11:58;7.18;;;4.50;;
18172;SDS011;9211;48.818;9.312;2024-03-22T12:14:24;8.05;;;4.75;;
18172;SDS011;9211;48.818;9.312;2024-03-22T12:16:52;9.55;;;5.07;;
18172;SDS011;9211;48.818;9.312;2024-03-22T12:19:22;9.37;;;4.77;;
18172;SDS011;9211;48.818;9.312;2024-03-22T12:21:51;9.82;;;4.97;;
18172;SDS011;9211;48.818;9.312;2024-03-22T12:24:22;9.50;;;4.70;;
18172;SDS011;9211;48.818;9.312;2024-03-22T12:26:52;9.68;;;4.88;;
18172;SDS011;9211;48.818;9.312;2024-03-22T12:29:22;10.10;;;4.85;;
18172;SDS011;9211;48.818;9.312;2024-03-22T12:31:52;6.60;;;4.30;;
18172;SDS011;9211;48.818;9.312;2024-03-22T12:34:20;7.70;;;4.25;;
18172;SDS011;9211;48.818;9.312;2024-03-22T12:36:51;7.03;;;3.50;;
18172;SDS011;9211;48.818;9.312;2024-03-22T12:39:18;10.13;;;4.70;;
18172;SDS011;9211;48.818;9.312;2024-03-22T12:41:49;9.00;;;4.32;;
18172;SDS011;9211;48.818;9.312;2024-03-22T12:44:19;6.18;;;3.72;;
18172;SDS011;9211;48.818;9.312;2024-03-22T12:46:53;7.40;;;3.78;;
18172;SDS011;9211;48.818;9.312;2024-03-22T12:49:22;7.00;;;3.63;;
18172;SDS011;9211;48.818;9.312;2024-03-22T12:51:53;7.47;;;4.00;;
18172;SDS011;9211;48.818;9.312;2024-03-22T12:54:19;7.40;;;3.50;;
18172;SDS011;9211;48.818;9.312;2024-03-22T12:57:03;7.45;;;3.92;;
18172;SDS011;9211;48.818;9.312;2024-03-22T12:59:32;7.32;;;3.60;;
18172;SDS011;9211;48.818;9.312;2024-03-22T13:02:08;8.90;;;3.83;;
18172;SDS011;9211;48.818;9.312;2024-03-22T13:04:35;8.45;;;4.45;;
18172;SDS011;9211;48.818;9.312;2024-03-22T13:07:03;5.30;;;2.78;;
18172;SDS011;9211;48.818;9.312;2024-03-22T13:09:29;5.47;;;2.90;;
18172;SDS011;9211;48.818;9.312;2024-03-22T13:11:56;7.77;;;3.40;;
18172;SDS011;9211;48.818;9.312;2024-03-22T13:14:22;6.97;;;3.75;;
18172;SDS011;9211;48.818;9.312;2024-03-22T13:16:50;10.48;;;4.50;;
18172;SDS011;9211;48.818;9.312;2024-03-22T13:19:16;9.02;;;4.47;;
18172;SDS011;9211;48.818;9.312;2024-03-22T13:21:45;7.93;;;3.60;;
18172;SDS011;9211;48.818;9.312;2024-03-22T13:24:13;7.00;;;3.75;;
18172;SDS011;9211;48.818;9.312;2024-03-22T13:26:41;8.48;;;3.88;;
18172;SDS011;9211;48.818;9.312;2024-03-22T13:29:07;7.68;;;3.65;;
18172;SDS011;9211;48.818;9.312;2024-03-22T13:31:34;7.78;;;3.60;;
18172;SDS011;9211;48.818;9.312;2024-03-22T13:34:01;7.40;;;3.30;;
18172;SDS011;9211;48.818;9.312;2024-03-22T13:36:29;6.50;;;3.00;;
18172;SDS011;9211;48.818;9.312;2024-03-22T13:39:00;7.47;;;3.10;;
18172;SDS011;9211;48.818;9.312;2024-03-22T13:41:27;7.72;;;3.22;;
18172;SDS011;9211;48.818;9.312;2024-03-22T13:43:54;8.52;;;2.92;;
18172;SDS011;9211;48.818;9.312;2024-03-22T13:46:21;5.63;;;2.90;;
18172;SDS011;9211;48.818;9.312;2024-03-22T13:48:48;5.57;;;2.80;;
18172;SDS011;9211;48.818;9.312;2024-03-22T13:51:16;7.57;;;3.00;;
18172;SDS011;9211;48.818;9.312;2024-03-22T13:53:42;7.93;;;3.30;;
18172;SDS011;9211;48.818;9.312;2024-03-22T13:56:11;8.85;;;3.58;;
18172;SDS011;9211;48.818;9.312;2024-03-22T13:58:37;7.68;;;3.00;;
18172;SDS011;9211;48.818;9.312;2024-03-22T14:01:04;10.77;;;3.17;;
18172;SDS011;9211;48.818;9.312;2024-03-22T14:03:31;8.00;;;3.40;;
18172;SDS011;9211;48.818;9.312;2024-03-22T14:05:58;5.75;;;2.80;;
18172;SDS011;9211;48.818;9.312;2024-03-22T14:08:24;7.68;;;3.15;;
18172;SDS011;9211;48.818;9.312;2024-03-22T14:10:51;7.47;;;2.92;;
18172;SDS011;9211;48.818;9.312;2024-03-22T14:13:19;6.97;;;3.00;;
18172;SDS011;9211;48.818;9.312;2024-03-22T14:15:46;6.25;;;2.88;;
18172;SDS011;9211;48.818;9.312;2024-03-22T14:18:12;9.45;;;3.30;;
18172;SDS011;9211;48.818;9.312;2024-03-22T14:20:40;7.43;;;3.07;;
18172;SDS011;9211;48.818;9.312;2024-03-22T14:23:06;7.72;;;3.45;;
18172;SDS011;9211;48.818;9.312;2024-03-22T14:25:34;8.75;;;3.42;;
18172;SDS011;9211;48.818;9.312;2024-03-22T14:28:00;9.23;;;3.60;;
18172;SDS011;9211;48.818;9.312;2024-03-22T14:30:29;7.40;;;3.17;;
18172;SDS011;9211;48.818;9.312;2024-03-22T14:32:55;9.35;;;3.30;;
18172;SDS011;9211;48.818;9.312;2024-03-22T14:35:23;6.88;;;3.30;;
18172;SDS011;9211;48.818;9.312;2024-03-22T14:37:49;7.40;;;3.35;;
18172;SDS011;9211;48.818;9.312;2024-03-22T14:40:18;6.30;;;3.33;;
18172;SDS011;9211;48.818;9.312;2024-03-22T14:42:44;7.20;;;3.40;;
18172;SDS011;9211;48.818;9.312;2024-03-22T14:45:12;5.97;;;3.13;;
18172;SDS011;9211;48.818;9.312;2024-03-22T14:47:39;8.27;;;3.53;;
18172;SDS011;9211;48.818;9.312;2024-03-22T14:50:07;5.45;;;3.10;;